createdAt,value
2019-05-28T00:00:01.801Z,15.03
2019-05-28T00:00:51.755Z,15.07
2019-05-28T00:01:51.808Z,15.04
2019-05-28T00:02:51.700Z,15.06
2019-05-28T00:03:51.670Z,14.96
2019-05-28T00:04:51.651Z,14.97
2019-05-28T00:05:51.614Z,15.03
2019-05-28T00:06:51.618Z,14.99
2019-05-28T00:07:51.568Z,14.91
2019-05-28T00:08:51.535Z,14.88
2019-05-28T00:09:51.503Z,14.88
2019-05-28T00:10:51.566Z,14.89
2019-05-28T00:11:51.489Z,14.84
2019-05-28T00:12:51.444Z,14.73
2019-05-28T00:13:51.427Z,14.66
2019-05-28T00:14:51.371Z,14.70
2019-05-28T00:15:51.349Z,14.69
2019-05-28T00:16:51.337Z,14.68
2019-05-28T00:17:51.283Z,14.66
2019-05-28T00:18:51.257Z,14.62
2019-05-28T00:19:51.230Z,14.54
2019-05-28T00:20:51.205Z,14.50
2019-05-28T00:21:51.201Z,14.45
2019-05-28T00:22:51.147Z,14.45
2019-05-28T00:23:51.159Z,14.32
2019-05-28T00:24:51.092Z,14.36
2019-05-28T00:25:51.065Z,14.28
2019-05-28T00:26:51.077Z,14.29
2019-05-28T00:27:51.012Z,14.22
2019-05-28T00:28:50.981Z,14.15
2019-05-28T00:29:50.961Z,14.18
2019-05-28T00:30:50.928Z,14.15
2019-05-28T00:31:50.923Z,14.10
2019-05-28T00:32:50.875Z,14.03
2019-05-28T00:33:50.857Z,13.95
2019-05-28T00:34:50.821Z,13.92
2019-05-28T00:35:50.788Z,13.92
2019-05-28T00:36:50.788Z,13.83
2019-05-28T00:37:50.731Z,13.79
2019-05-28T00:38:50.709Z,13.86
2019-05-28T00:39:50.682Z,13.87
2019-05-28T00:40:50.659Z,13.77
2019-05-28T00:41:50.649Z,13.74
2019-05-28T00:42:50.595Z,13.74
2019-05-28T00:43:50.565Z,13.65
2019-05-28T00:44:50.539Z,13.70
2019-05-28T00:45:50.513Z,13.71
2019-05-28T00:46:50.505Z,13.63
2019-05-28T00:47:50.469Z,13.56
2019-05-28T00:48:50.429Z,13.46
2019-05-28T00:49:50.404Z,13.42
2019-05-28T00:50:50.379Z,13.38
2019-05-28T00:51:50.364Z,13.27
2019-05-28T00:52:50.313Z,13.28
2019-05-28T00:53:50.287Z,13.19
2019-05-28T00:54:50.262Z,13.31
2019-05-28T00:55:50.229Z,13.23
2019-05-28T00:56:50.236Z,13.28
2019-05-28T00:57:50.172Z,13.16
2019-05-28T00:58:50.145Z,13.19
2019-05-28T00:59:50.117Z,13.11
2019-05-28T01:00:50.088Z,13.01
2019-05-28T01:01:50.078Z,12.90
2019-05-28T01:02:50.341Z,12.82
2019-05-28T01:03:50.007Z,12.70
2019-05-28T01:04:50.005Z,12.68
2019-05-28T01:05:49.950Z,12.67
2019-05-28T01:06:49.927Z,12.61
2019-05-28T01:07:49.913Z,12.58
2019-05-28T01:08:49.861Z,12.47
2019-05-28T01:09:49.835Z,12.49
2019-05-28T01:10:49.808Z,12.42
2019-05-28T01:11:49.780Z,12.31
2019-05-28T01:12:49.771Z,12.32
2019-05-28T01:13:49.721Z,12.28
2019-05-28T01:14:49.696Z,12.21
2019-05-28T01:15:49.673Z,12.20
2019-05-28T01:16:49.647Z,12.13
2019-05-28T01:17:49.632Z,11.91
2019-05-28T01:18:49.583Z,11.91
2019-05-28T01:19:49.552Z,11.86
2019-05-28T01:20:49.599Z,11.75
2019-05-28T01:21:49.498Z,11.84
2019-05-28T01:22:49.488Z,11.80
2019-05-28T01:23:49.439Z,11.77
2019-05-28T01:24:49.406Z,11.69
2019-05-28T01:25:49.381Z,11.69
2019-05-28T01:26:49.351Z,11.70
2019-05-28T01:27:49.348Z,11.69
2019-05-28T01:28:49.294Z,11.63
2019-05-28T01:29:49.267Z,11.60
2019-05-28T01:30:56.224Z,11.59
2019-05-28T01:31:49.213Z,11.52
2019-05-28T01:32:49.227Z,11.55
2019-05-28T01:33:49.154Z,11.50
2019-05-28T01:34:49.122Z,11.48
2019-05-28T01:35:49.091Z,11.41
2019-05-28T01:36:49.088Z,11.40
2019-05-28T01:37:49.072Z,11.36
2019-05-28T01:38:49.007Z,11.35
2019-05-28T01:39:48.979Z,11.35
2019-05-28T01:40:48.976Z,11.37
2019-05-28T01:41:48.919Z,11.40
2019-05-28T01:42:48.916Z,11.37
2019-05-28T01:43:48.862Z,11.44
2019-05-28T01:44:48.831Z,11.41
2019-05-28T01:45:48.805Z,11.40
2019-05-28T01:46:48.776Z,11.44
2019-05-28T01:47:48.827Z,11.45
2019-05-28T01:48:48.717Z,11.48
2019-05-28T01:49:48.686Z,11.50
2019-05-28T01:50:48.660Z,11.50
2019-05-28T01:51:48.633Z,11.47
2019-05-28T01:52:48.625Z,11.50
2019-05-28T01:53:48.579Z,11.60
2019-05-28T01:54:48.548Z,11.57
2019-05-28T01:55:48.516Z,11.65
2019-05-28T01:56:48.488Z,11.63
2019-05-28T01:57:48.480Z,11.59
2019-05-28T01:58:48.429Z,11.60
2019-05-28T01:59:48.414Z,11.55
2019-05-28T02:00:48.370Z,11.50
2019-05-28T02:01:48.347Z,11.60
2019-05-28T02:02:48.342Z,11.62
2019-05-28T02:03:48.286Z,11.55
2019-05-28T02:04:48.277Z,11.51
2019-05-28T02:05:48.228Z,11.48
2019-05-28T02:06:48.202Z,11.54
2019-05-28T02:07:48.193Z,11.50
2019-05-28T02:08:48.146Z,11.50
2019-05-28T02:09:48.115Z,11.45
2019-05-28T02:10:48.089Z,11.57
2019-05-28T02:11:48.058Z,11.48
2019-05-28T02:12:48.057Z,11.59
2019-05-28T02:13:47.999Z,11.52
2019-05-28T02:14:47.974Z,11.54
2019-05-28T02:15:47.942Z,11.43
2019-05-28T02:16:47.910Z,11.55
2019-05-28T02:17:47.882Z,11.57
2019-05-28T02:18:47.878Z,11.57
2019-05-28T02:19:47.829Z,11.52
2019-05-28T02:20:47.799Z,11.54
2019-05-28T02:21:47.776Z,11.59
2019-05-28T02:22:47.748Z,11.54
2019-05-28T02:23:47.734Z,11.60
2019-05-28T02:24:47.688Z,11.62
2019-05-28T02:25:47.654Z,11.57
2019-05-28T02:26:47.623Z,11.63
2019-05-28T02:27:47.596Z,11.57
2019-05-28T02:28:47.599Z,11.57
2019-05-28T02:29:47.539Z,11.55
2019-05-28T02:30:47.520Z,11.55
2019-05-28T02:31:47.479Z,11.45
2019-05-28T02:32:47.456Z,11.52
2019-05-28T02:33:47.446Z,11.45
2019-05-28T02:34:47.393Z,11.52
2019-05-28T02:35:47.368Z,11.48
2019-05-28T02:36:47.344Z,11.45
2019-05-28T02:37:47.309Z,11.48
2019-05-28T02:38:47.302Z,11.51
2019-05-28T02:39:47.251Z,11.43
2019-05-28T02:40:47.224Z,11.52
2019-05-28T02:41:47.193Z,11.55
2019-05-28T02:42:47.165Z,11.55
2019-05-28T02:43:47.167Z,11.47
2019-05-28T02:44:47.116Z,11.55
2019-05-28T02:45:47.082Z,11.63
2019-05-28T02:46:47.050Z,11.63
2019-05-28T02:47:47.042Z,11.69
2019-05-28T02:48:47.017Z,11.66
2019-05-28T02:49:46.962Z,11.77
2019-05-28T02:50:47.012Z,11.81
2019-05-28T02:51:46.910Z,11.95
2019-05-28T02:52:47.798Z,12.00
2019-05-28T02:53:46.873Z,11.91
2019-05-28T02:54:46.825Z,12.09
2019-05-28T02:55:46.791Z,12.13
2019-05-28T02:56:46.766Z,12.20
2019-05-28T02:57:46.735Z,12.27
2019-05-28T02:58:46.729Z,12.32
2019-05-28T02:59:46.674Z,12.25
2019-05-28T03:00:46.646Z,12.27
2019-05-28T03:01:46.617Z,12.31
2019-05-28T03:02:46.680Z,12.46
2019-05-28T03:03:46.584Z,12.42
2019-05-28T03:04:46.544Z,12.40
2019-05-28T03:05:46.501Z,12.49
2019-05-28T03:06:46.477Z,12.47
2019-05-28T03:07:46.443Z,12.46
2019-05-28T03:08:46.450Z,12.46
2019-05-28T03:09:46.387Z,12.49
2019-05-28T03:11:02.183Z,12.53
2019-05-28T03:11:46.342Z,12.50
2019-05-28T03:12:46.339Z,12.49
2019-05-28T03:13:46.288Z,12.45
2019-05-28T03:14:46.361Z,12.49
2019-05-28T03:15:46.219Z,12.54
2019-05-28T03:16:46.190Z,12.58
2019-05-28T03:17:46.169Z,12.57
2019-05-28T03:18:46.131Z,12.67
2019-05-28T03:19:46.129Z,12.70
2019-05-28T03:20:46.074Z,12.68
2019-05-28T03:21:46.045Z,12.83
2019-05-28T03:22:46.021Z,12.90
2019-05-28T03:23:45.994Z,12.94
2019-05-28T03:24:46.027Z,12.93
2019-05-28T03:25:45.931Z,12.95
2019-05-28T03:26:45.903Z,13.00
2019-05-28T03:27:45.875Z,13.01
2019-05-28T03:28:45.849Z,13.05
2019-05-28T03:29:45.842Z,13.05
2019-05-28T03:30:45.795Z,13.08
2019-05-28T03:32:05.985Z,13.05
2019-05-28T03:32:45.744Z,13.12
2019-05-28T03:33:45.723Z,13.18
2019-05-28T03:34:45.714Z,13.15
2019-05-28T03:35:45.659Z,13.19
2019-05-28T03:36:45.625Z,13.18
2019-05-28T03:37:45.599Z,13.18
2019-05-28T03:38:45.573Z,13.27
2019-05-28T03:39:45.564Z,13.22
2019-05-28T03:40:45.514Z,13.25
2019-05-28T03:41:45.489Z,13.27
2019-05-28T03:42:45.459Z,13.23
2019-05-28T03:43:45.428Z,13.31
2019-05-28T03:44:45.424Z,13.27
2019-05-28T03:45:45.381Z,13.23
2019-05-28T03:46:45.351Z,13.22
2019-05-28T03:47:45.320Z,13.12
2019-05-28T03:48:45.290Z,13.31
2019-05-28T03:49:45.285Z,13.12
2019-05-28T03:50:45.246Z,13.22
2019-05-28T03:51:45.205Z,13.25
2019-05-28T03:52:45.180Z,13.18
2019-05-28T03:53:45.151Z,13.27
2019-05-28T03:54:45.146Z,13.22
2019-05-28T03:55:45.137Z,13.27
2019-05-28T03:56:45.064Z,13.23
2019-05-28T03:57:45.035Z,13.30
2019-05-28T03:58:45.010Z,13.22
2019-05-28T03:59:45.008Z,13.27
2019-05-28T04:00:44.959Z,13.31
2019-05-28T04:01:44.916Z,13.35
2019-05-28T04:02:44.887Z,13.37
2019-05-28T04:03:44.860Z,13.38
2019-05-28T04:04:44.860Z,13.33
2019-05-28T04:05:44.806Z,13.46
2019-05-28T04:06:44.778Z,13.52
2019-05-28T04:07:44.748Z,13.46
2019-05-28T04:08:44.723Z,13.52
2019-05-28T04:09:44.774Z,13.60
2019-05-28T04:10:44.664Z,13.60
2019-05-28T04:11:45.417Z,13.74
2019-05-28T04:12:44.608Z,13.67
2019-05-28T04:13:44.593Z,13.70
2019-05-28T04:14:44.589Z,13.71
2019-05-28T04:15:44.526Z,13.74
2019-05-28T04:16:44.499Z,13.77
2019-05-28T04:17:44.475Z,13.79
2019-05-28T04:18:44.444Z,13.89
2019-05-28T04:19:44.456Z,13.89
2019-05-28T04:20:44.411Z,13.92
2019-05-28T04:21:44.360Z,13.92
2019-05-28T04:22:44.338Z,13.97
2019-05-28T04:23:44.307Z,13.93
2019-05-28T04:24:44.288Z,14.05
2019-05-28T04:25:44.280Z,14.08
2019-05-28T04:26:44.225Z,14.17
2019-05-28T04:27:44.196Z,14.22
2019-05-28T04:28:44.164Z,14.28
2019-05-28T04:29:44.145Z,14.35
2019-05-28T04:30:44.137Z,14.35
2019-05-28T04:31:44.087Z,14.36
2019-05-28T04:32:44.057Z,14.54
2019-05-28T04:33:44.039Z,14.63
2019-05-28T04:34:44.019Z,14.72
2019-05-28T04:35:43.999Z,14.68
2019-05-28T04:36:43.952Z,14.78
2019-05-28T04:37:43.920Z,14.85
2019-05-28T04:38:43.893Z,14.82
2019-05-28T04:39:43.869Z,14.78
2019-05-28T04:40:43.874Z,14.81
2019-05-28T04:41:43.812Z,14.88
2019-05-28T04:42:43.790Z,14.84
2019-05-28T04:43:43.756Z,14.82
2019-05-28T04:44:43.731Z,14.86
2019-05-28T04:45:43.729Z,14.97
2019-05-28T04:46:43.677Z,15.02
2019-05-28T04:47:43.648Z,14.92
2019-05-28T04:48:43.625Z,15.03
2019-05-28T04:49:43.594Z,15.00
2019-05-28T04:50:43.602Z,15.02
2019-05-28T04:51:43.565Z,15.00
2019-05-28T04:52:43.520Z,15.02
2019-05-28T04:53:43.494Z,15.03
2019-05-28T04:54:43.462Z,15.02
2019-05-28T04:55:43.461Z,14.96
2019-05-28T04:56:43.407Z,15.02
2019-05-28T04:57:43.381Z,15.07
2019-05-28T04:58:43.354Z,15.11
2019-05-28T04:59:43.332Z,15.17
2019-05-28T05:00:43.343Z,15.18
2019-05-28T05:01:43.276Z,15.14
2019-05-28T05:02:58.137Z,15.10
2019-05-28T05:03:43.224Z,15.04
2019-05-28T05:04:43.202Z,15.04
2019-05-28T05:05:43.191Z,15.03
2019-05-28T05:06:43.140Z,15.00
2019-05-28T05:07:43.143Z,14.94
2019-05-28T05:08:43.088Z,14.97
2019-05-28T05:09:43.060Z,14.91
2019-05-28T05:10:43.069Z,14.92
2019-05-28T05:11:43.031Z,14.94
2019-05-28T05:12:42.983Z,15.00
2019-05-28T05:13:42.953Z,14.99
2019-05-28T05:14:42.938Z,14.91
2019-05-28T05:15:42.932Z,14.88
2019-05-28T05:16:42.873Z,14.94
2019-05-28T05:17:42.848Z,14.88
2019-05-28T05:18:42.817Z,15.02
2019-05-28T05:19:42.794Z,14.96
2019-05-28T05:20:42.793Z,15.02
2019-05-28T05:21:42.744Z,14.97
2019-05-28T05:22:42.714Z,15.02
2019-05-28T05:23:42.692Z,15.04
2019-05-28T05:24:42.682Z,14.94
2019-05-28T05:25:42.666Z,15.00
2019-05-28T05:26:42.610Z,15.02
2019-05-28T05:27:42.579Z,15.14
2019-05-28T05:28:42.552Z,15.15
2019-05-28T05:29:42.528Z,15.22
2019-05-28T05:30:42.526Z,15.18
2019-05-28T05:31:42.471Z,15.15
2019-05-28T05:32:42.449Z,15.31
2019-05-28T05:33:42.413Z,15.33
2019-05-28T05:34:42.416Z,15.22
2019-05-28T05:35:42.365Z,15.21
2019-05-28T05:36:42.361Z,15.19
2019-05-28T05:37:42.323Z,15.22
2019-05-28T05:38:42.282Z,15.31
2019-05-28T05:39:42.256Z,15.31
2019-05-28T05:40:42.237Z,15.29
2019-05-28T05:41:42.229Z,15.57
2019-05-28T05:42:42.179Z,15.73
2019-05-28T05:43:42.159Z,15.65
2019-05-28T05:44:42.122Z,15.76
2019-05-28T05:45:42.104Z,15.80
2019-05-28T05:46:42.095Z,15.82
2019-05-28T05:47:42.094Z,15.84
2019-05-28T05:48:42.040Z,15.83
2019-05-28T05:49:41.996Z,15.83
2019-05-28T05:50:45.114Z,15.98
2019-05-28T05:51:41.968Z,15.98
2019-05-28T05:52:41.918Z,16.00
2019-05-28T05:53:41.890Z,16.00
2019-05-28T05:54:41.875Z,15.98
2019-05-28T05:55:41.835Z,15.91
2019-05-28T05:56:41.848Z,15.94
2019-05-28T05:57:41.786Z,16.01
2019-05-28T05:58:41.760Z,15.98
2019-05-28T05:59:41.736Z,15.92
2019-05-28T06:00:41.713Z,16.05
2019-05-28T06:01:41.740Z,16.08
2019-05-28T06:02:41.671Z,16.28
2019-05-28T06:03:42.193Z,16.33
2019-05-28T06:04:41.604Z,16.53
2019-05-28T06:05:41.581Z,16.54
2019-05-28T06:06:41.583Z,16.65
2019-05-28T06:07:41.546Z,16.56
2019-05-28T06:08:41.507Z,16.57
2019-05-28T06:09:41.477Z,16.53
2019-05-28T06:10:41.453Z,16.66
2019-05-28T06:11:41.449Z,16.86
2019-05-28T06:12:41.446Z,16.97
2019-05-28T06:13:41.379Z,16.89
2019-05-28T06:14:41.358Z,16.86
2019-05-28T06:15:41.328Z,16.90
2019-05-28T06:16:41.321Z,17.11
2019-05-28T06:17:41.273Z,17.33
2019-05-28T06:18:41.291Z,17.56
2019-05-28T06:19:41.227Z,17.63
2019-05-28T06:20:41.218Z,17.65
2019-05-28T06:21:41.198Z,17.79
2019-05-28T06:22:41.152Z,17.87
2019-05-28T06:23:41.148Z,17.90
2019-05-28T06:24:41.100Z,17.89
2019-05-28T06:25:41.077Z,17.95
2019-05-28T06:26:41.073Z,17.89
2019-05-28T06:27:41.034Z,17.90
2019-05-28T06:28:41.007Z,17.85
2019-05-28T06:29:40.982Z,17.98
2019-05-28T06:30:40.958Z,18.08
2019-05-28T06:31:40.958Z,18.19
2019-05-28T06:32:40.908Z,18.13
2019-05-28T06:33:55.628Z,18.08
2019-05-28T06:34:40.864Z,18.10
2019-05-28T06:35:40.837Z,18.11
2019-05-28T06:36:40.835Z,18.19
2019-05-28T06:37:40.792Z,18.10
2019-05-28T06:38:40.769Z,18.11
2019-05-28T06:39:40.740Z,17.90
2019-05-28T06:40:40.727Z,17.79
2019-05-28T06:41:40.717Z,17.94
2019-05-28T06:42:40.669Z,17.97
2019-05-28T06:43:40.645Z,18.13
2019-05-28T06:44:40.643Z,18.33
2019-05-28T06:45:40.600Z,18.55
2019-05-28T06:46:40.609Z,18.59
2019-05-28T06:47:44.987Z,18.40
2019-05-28T06:48:40.525Z,18.43
2019-05-28T06:49:40.501Z,18.53
2019-05-28T06:50:40.479Z,18.66
2019-05-28T06:51:40.454Z,18.80
2019-05-28T06:52:40.456Z,18.66
2019-05-28T06:53:40.413Z,18.62
2019-05-28T06:54:40.973Z,18.52
2019-05-28T06:55:40.368Z,18.35
2019-05-28T06:56:40.339Z,18.34
2019-05-28T06:57:40.338Z,18.31
2019-05-28T06:58:40.643Z,18.38
2019-05-28T06:59:40.265Z,18.41
2019-05-28T07:00:40.255Z,18.35
2019-05-28T07:01:40.223Z,18.49
2019-05-28T07:02:40.223Z,18.41
2019-05-28T07:03:40.199Z,18.43
2019-05-28T07:04:40.153Z,18.56
2019-05-28T07:05:40.128Z,18.53
2019-05-28T07:06:40.103Z,18.53
2019-05-28T07:07:40.118Z,18.52
2019-05-28T07:08:40.064Z,18.52
2019-05-28T07:09:40.042Z,18.56
2019-05-28T07:10:56.633Z,18.43
2019-05-28T07:11:39.993Z,18.52
2019-05-28T07:12:39.986Z,18.47
2019-05-28T07:13:39.940Z,18.43
2019-05-28T07:14:39.918Z,18.52
2019-05-28T07:15:39.893Z,18.45
2019-05-28T07:16:52.712Z,18.35
2019-05-28T07:17:39.877Z,18.40
2019-05-28T07:18:39.829Z,18.60
2019-05-28T07:19:39.851Z,18.52
2019-05-28T07:20:39.787Z,18.56
2019-05-28T07:21:39.762Z,18.47
2019-05-28T07:22:39.769Z,18.50
2019-05-28T07:23:39.711Z,18.38
2019-05-28T07:24:39.683Z,18.31
2019-05-28T07:25:39.659Z,18.37
2019-05-28T07:26:39.639Z,18.56
2019-05-28T07:27:39.662Z,18.63
2019-05-28T07:28:39.659Z,18.66
2019-05-28T07:29:39.572Z,18.66
2019-05-28T07:30:39.546Z,18.80
2019-05-28T07:31:39.524Z,18.78
2019-05-28T07:32:39.975Z,18.77
2019-05-28T07:33:39.474Z,18.81
2019-05-28T07:34:48.448Z,18.88
2019-05-28T07:35:45.809Z,19.00
2019-05-28T07:36:40.387Z,19.02
2019-05-28T07:37:39.407Z,19.14
2019-05-28T07:38:39.403Z,18.96
2019-05-28T07:39:39.335Z,19.11
2019-05-28T07:40:39.340Z,18.95
2019-05-28T07:41:39.289Z,18.88
2019-05-28T07:42:39.286Z,18.93
2019-05-28T07:43:39.245Z,19.11
2019-05-28T07:44:39.217Z,19.16
2019-05-28T07:45:39.198Z,19.00
2019-05-28T07:46:39.187Z,18.95
2019-05-28T07:47:39.172Z,18.83
2019-05-28T07:48:39.129Z,18.47
2019-05-28T07:49:39.109Z,18.38
2019-05-28T07:50:39.097Z,18.35
2019-05-28T07:51:39.058Z,18.31
2019-05-28T07:52:39.059Z,18.38
2019-05-28T07:53:40.660Z,18.43
2019-05-28T07:54:39.650Z,18.41
2019-05-28T07:55:38.969Z,18.43
2019-05-28T07:56:38.943Z,18.38
2019-05-28T07:57:38.952Z,18.34
2019-05-28T07:58:38.940Z,18.31
2019-05-28T07:59:38.891Z,18.31
2019-05-28T08:00:38.852Z,18.38
2019-05-28T08:01:38.843Z,18.43
2019-05-28T08:02:38.832Z,18.40
2019-05-28T08:03:38.787Z,18.43
2019-05-28T08:04:47.185Z,18.52
2019-05-28T08:05:38.733Z,18.34
2019-05-28T08:06:53.658Z,18.44
2019-05-28T08:07:38.683Z,18.53
2019-05-28T08:08:38.700Z,18.52
2019-05-28T08:09:38.638Z,18.49
2019-05-28T08:10:38.625Z,18.47
2019-05-28T08:11:38.595Z,18.34
2019-05-28T08:12:38.569Z,18.31
2019-05-28T08:13:41.015Z,18.41
2019-05-28T08:14:38.645Z,18.53
2019-05-28T08:15:38.502Z,18.68
2019-05-28T08:16:51.921Z,18.68
2019-05-28T08:17:38.452Z,18.65
2019-05-28T08:18:38.458Z,18.52
2019-05-28T08:19:38.410Z,18.44
2019-05-28T08:20:38.381Z,18.44
2019-05-28T08:21:38.376Z,18.52
2019-05-28T08:22:42.700Z,18.60
2019-05-28T08:23:38.343Z,18.70
2019-05-28T08:24:38.292Z,18.68
2019-05-28T08:25:46.645Z,18.68
2019-05-28T08:26:38.252Z,18.83
2019-05-28T08:27:38.223Z,18.88
2019-05-28T08:28:38.217Z,19.00
2019-05-28T08:29:38.172Z,19.02
2019-05-28T08:30:38.171Z,19.12
2019-05-28T08:31:38.129Z,19.07
2019-05-28T08:32:38.157Z,18.96
2019-05-28T08:33:38.105Z,19.00
2019-05-28T08:34:38.066Z,18.96
2019-05-28T08:35:38.035Z,18.92
2019-05-28T08:36:38.020Z,19.19
2019-05-28T08:37:37.994Z,19.27
2019-05-28T08:38:38.006Z,19.34
2019-05-28T08:39:37.959Z,19.18
2019-05-28T08:40:37.928Z,19.24
2019-05-28T08:41:37.905Z,19.27
2019-05-28T08:42:37.880Z,19.30
2019-05-28T08:43:37.877Z,19.33
2019-05-28T08:44:37.830Z,19.08
2019-05-28T08:45:37.811Z,19.09
2019-05-28T08:46:37.787Z,19.16
2019-05-28T08:47:37.764Z,19.27
2019-05-28T08:48:37.759Z,19.27
2019-05-28T08:49:37.717Z,19.33
2019-05-28T08:50:37.694Z,19.33
2019-05-28T08:51:37.669Z,19.27
2019-05-28T08:52:37.649Z,19.21
2019-05-28T08:53:37.651Z,19.27
2019-05-28T08:54:37.602Z,19.24
2019-05-28T08:55:37.583Z,19.27
2019-05-28T08:56:37.572Z,19.19
2019-05-28T08:57:38.022Z,19.00
2019-05-28T08:58:37.549Z,18.98
2019-05-28T08:59:37.498Z,19.15
2019-05-28T09:00:37.503Z,19.21
2019-05-28T09:01:37.509Z,19.30
2019-05-28T09:02:37.425Z,19.44
2019-05-28T09:03:37.423Z,19.39
2019-05-28T09:04:37.385Z,19.44
2019-05-28T09:05:37.365Z,19.40
2019-05-28T09:06:37.335Z,19.44
2019-05-28T09:07:37.315Z,19.44
2019-05-28T09:08:39.831Z,19.45
2019-05-28T09:09:37.263Z,19.49
2019-05-28T09:10:37.263Z,19.41
2019-05-28T09:11:37.248Z,19.40
2019-05-28T09:12:37.205Z,19.66
2019-05-28T09:13:37.199Z,19.85
2019-05-28T09:14:54.881Z,19.95
2019-05-28T09:15:37.130Z,19.92
2019-05-28T09:16:37.104Z,20.09
2019-05-28T09:17:37.083Z,20.02
2019-05-28T09:18:37.065Z,19.92
2019-05-28T09:19:37.095Z,19.86
2019-05-28T09:20:37.022Z,19.85
2019-05-28T09:21:37.000Z,19.96
2019-05-28T09:22:36.979Z,19.85
2019-05-28T09:23:36.949Z,19.49
2019-05-28T09:24:36.963Z,19.63
2019-05-28T09:25:36.918Z,19.85
2019-05-28T09:26:36.894Z,19.85
2019-05-28T09:27:36.945Z,19.84
2019-05-28T09:28:36.846Z,19.95
2019-05-28T09:29:36.845Z,20.14
2019-05-28T09:30:36.795Z,20.14
2019-05-28T09:31:36.780Z,19.88
2019-05-28T09:32:36.782Z,19.85
2019-05-28T09:33:36.733Z,19.79
2019-05-28T09:34:37.130Z,19.74
2019-05-28T09:35:44.723Z,19.86
2019-05-28T09:36:36.668Z,19.88
2019-05-28T09:37:36.667Z,20.07
2019-05-28T09:38:36.627Z,20.16
2019-05-28T09:39:36.628Z,20.18
2019-05-28T09:40:49.364Z,20.19
2019-05-28T09:41:36.569Z,20.39
2019-05-28T09:42:36.540Z,20.48
2019-05-28T09:43:36.519Z,20.44
2019-05-28T09:44:36.528Z,20.58
2019-05-28T09:45:36.534Z,20.50
2019-05-28T09:46:36.448Z,20.44
2019-05-28T09:47:36.431Z,20.50
2019-05-28T09:48:36.406Z,20.67
2019-05-28T09:49:36.408Z,20.82
2019-05-28T09:50:36.365Z,20.84
2019-05-28T09:51:36.342Z,20.74
2019-05-28T09:52:53.050Z,20.88
2019-05-28T09:53:36.303Z,20.93
2019-05-28T09:54:36.346Z,20.78
2019-05-28T09:55:36.438Z,20.77
2019-05-28T09:56:36.243Z,20.74
2019-05-28T09:57:46.934Z,20.92
2019-05-28T09:58:36.190Z,21.06
2019-05-28T09:59:41.407Z,21.27
2019-05-28T10:00:36.142Z,21.11
2019-05-28T10:01:37.296Z,21.05
2019-05-28T10:02:36.101Z,20.82
2019-05-28T10:03:36.090Z,20.82
2019-05-28T10:04:48.359Z,20.67
2019-05-28T10:05:37.027Z,20.60
2019-05-28T10:06:37.437Z,20.39
2019-05-28T10:07:36.005Z,20.44
2019-05-28T10:08:35.986Z,20.81
2019-05-28T10:09:35.987Z,20.87
2019-05-28T10:10:35.936Z,20.81
2019-05-28T10:11:35.911Z,20.96
2019-05-28T10:12:35.892Z,21.21
2019-05-28T10:13:40.523Z,21.20
2019-05-28T10:14:35.885Z,21.48
2019-05-28T10:15:36.075Z,21.60
2019-05-28T10:16:36.934Z,21.61
2019-05-28T10:17:35.789Z,21.70
2019-05-28T10:18:35.769Z,21.75
2019-05-28T10:19:35.766Z,21.76
2019-05-28T10:20:38.210Z,21.96
2019-05-28T10:21:35.703Z,21.82
2019-05-28T10:22:35.683Z,21.67
2019-05-28T10:23:35.693Z,21.62
2019-05-28T10:24:35.672Z,21.52
2019-05-28T10:25:35.646Z,21.20
2019-05-28T10:26:35.598Z,20.99
2019-05-28T10:27:35.582Z,20.87
2019-05-28T10:28:35.564Z,20.99
2019-05-28T10:29:35.570Z,21.14
2019-05-28T10:30:35.516Z,21.27
2019-05-28T10:31:35.496Z,21.40
2019-05-28T10:32:35.484Z,21.32
2019-05-28T10:33:35.458Z,21.18
2019-05-28T10:34:35.436Z,21.30
2019-05-28T10:35:35.436Z,21.39
2019-05-28T10:36:37.753Z,21.22
2019-05-28T10:37:35.405Z,21.39
2019-05-28T10:38:35.349Z,21.40
2019-05-28T10:39:35.332Z,21.76
2019-05-28T10:40:35.334Z,21.83
2019-05-28T10:41:35.296Z,22.11
2019-05-28T10:42:35.329Z,22.18
2019-05-28T10:43:35.249Z,22.18
2019-05-28T10:44:35.228Z,22.14
2019-05-28T10:45:35.230Z,21.95
2019-05-28T10:46:35.186Z,21.67
2019-05-28T10:47:35.177Z,21.62
2019-05-28T10:48:35.153Z,21.58
2019-05-28T10:49:35.122Z,21.48
2019-05-28T10:50:35.125Z,21.27
2019-05-28T10:51:35.092Z,21.27
2019-05-28T10:52:35.067Z,21.50
2019-05-28T10:53:35.047Z,21.69
2019-05-28T10:54:35.076Z,21.85
2019-05-28T10:55:35.023Z,21.80
2019-05-28T10:56:34.978Z,21.92
2019-05-28T10:57:34.960Z,21.95
2019-05-28T10:58:34.946Z,21.60
2019-05-28T10:59:34.918Z,21.46
2019-05-28T11:00:34.929Z,21.48
2019-05-28T11:01:34.906Z,21.45
2019-05-28T11:02:37.449Z,21.33
2019-05-28T11:03:34.843Z,21.33
2019-05-28T11:04:34.817Z,21.37
2019-05-28T11:05:34.828Z,21.54
2019-05-28T11:06:48.877Z,21.58
2019-05-28T11:07:34.758Z,21.93
2019-05-28T11:08:34.733Z,22.07
2019-05-28T11:09:34.713Z,22.00
2019-05-28T11:10:34.718Z,21.66
2019-05-28T11:11:34.678Z,21.32
2019-05-28T11:12:34.657Z,20.90
2019-05-28T11:13:34.626Z,21.07
2019-05-28T11:14:34.611Z,21.20
2019-05-28T11:15:34.611Z,21.18
2019-05-28T11:16:34.574Z,21.27
2019-05-28T11:17:34.551Z,21.30
2019-05-28T11:18:34.526Z,21.17
2019-05-28T11:19:34.505Z,21.03
2019-05-28T11:20:34.509Z,21.03
2019-05-28T11:21:34.465Z,21.00
2019-05-28T11:22:34.441Z,21.25
2019-05-28T11:23:34.436Z,21.42
2019-05-28T11:24:34.404Z,21.42
2019-05-28T11:25:34.400Z,21.50
2019-05-28T11:26:34.356Z,21.64
2019-05-28T11:27:34.344Z,21.76
2019-05-28T11:28:34.316Z,21.69
2019-05-28T11:29:34.297Z,21.54
2019-05-28T11:30:34.328Z,21.52
2019-05-28T11:31:34.261Z,21.55
2019-05-28T11:32:34.231Z,21.72
2019-05-28T11:33:34.214Z,21.77
2019-05-28T11:34:34.193Z,21.58
2019-05-28T11:35:34.192Z,21.70
2019-05-28T11:36:34.149Z,21.48
2019-05-28T11:37:34.133Z,21.36
2019-05-28T11:38:34.113Z,21.35
2019-05-28T11:39:34.089Z,21.50
2019-05-28T11:40:34.099Z,21.61
2019-05-28T11:41:41.870Z,21.64
2019-05-28T11:42:34.024Z,21.69
2019-05-28T11:43:34.005Z,21.61
2019-05-28T11:44:33.994Z,21.73
2019-05-28T11:45:33.966Z,21.91
2019-05-28T11:46:33.974Z,21.55
2019-05-28T11:47:33.925Z,21.58
2019-05-28T11:48:33.926Z,21.40
2019-05-28T11:49:33.883Z,21.22
2019-05-28T11:50:33.892Z,21.07
2019-05-28T11:51:33.889Z,21.00
2019-05-28T11:52:33.817Z,20.84
2019-05-28T11:53:36.791Z,20.82
2019-05-28T11:54:33.799Z,21.00
2019-05-28T11:55:33.765Z,21.33
2019-05-28T11:56:34.090Z,21.43
2019-05-28T11:57:33.718Z,21.58
2019-05-28T11:58:33.711Z,21.88
2019-05-28T11:59:33.683Z,22.07
2019-05-28T12:00:33.654Z,22.07
2019-05-28T12:01:35.433Z,21.96
2019-05-28T12:02:33.610Z,22.00
2019-05-28T12:03:33.611Z,21.80
2019-05-28T12:04:33.571Z,21.66
2019-05-28T12:05:33.565Z,21.77
2019-05-28T12:06:38.186Z,21.60
2019-05-28T12:07:33.508Z,21.42
2019-05-28T12:08:33.485Z,21.20
2019-05-28T12:09:33.474Z,21.40
2019-05-28T12:10:33.460Z,21.35
2019-05-28T12:11:33.467Z,21.39
2019-05-28T12:12:33.400Z,21.54
2019-05-28T12:13:33.386Z,21.62
2019-05-28T12:14:34.058Z,21.82
2019-05-28T12:15:33.343Z,21.75
2019-05-28T12:16:33.344Z,21.88
2019-05-28T12:17:42.481Z,21.72
2019-05-28T12:18:33.279Z,21.76
2019-05-28T12:19:33.259Z,21.66
2019-05-28T12:20:33.237Z,21.73
2019-05-28T12:21:33.275Z,21.92
2019-05-28T12:22:33.197Z,22.25
2019-05-28T12:23:33.193Z,22.04
2019-05-28T12:24:33.162Z,21.91
2019-05-28T12:25:33.133Z,21.99
2019-05-28T12:26:33.138Z,21.89
2019-05-28T12:27:38.976Z,21.77
2019-05-28T12:28:38.178Z,21.76
2019-05-28T12:29:33.052Z,21.80
2019-05-28T12:30:33.116Z,21.89
2019-05-28T12:31:33.029Z,21.88
2019-05-28T12:32:32.985Z,21.91
2019-05-28T12:33:32.972Z,21.70
2019-05-28T12:34:32.946Z,21.30
2019-05-28T12:35:32.929Z,21.52
2019-05-28T12:36:32.935Z,21.51
2019-05-28T12:37:47.342Z,21.43
2019-05-28T12:38:32.864Z,21.46
2019-05-28T12:39:32.844Z,21.61
2019-05-28T12:40:46.416Z,21.57
2019-05-28T12:41:32.829Z,21.70
2019-05-28T12:42:32.780Z,21.75
2019-05-28T12:43:32.757Z,21.73
2019-05-28T12:44:41.484Z,21.72
2019-05-28T12:45:35.998Z,21.92
2019-05-28T12:46:32.722Z,22.25
2019-05-28T12:47:32.676Z,22.02
2019-05-28T12:48:32.658Z,21.88
2019-05-28T12:49:32.673Z,21.48
2019-05-28T12:50:32.614Z,21.75
2019-05-28T12:51:32.618Z,22.00